RYR5EC LYNI-LOWW
Flight info
| Callsign | RYR5EC |
|---|---|
| Flight time | 1h 3m |
| Altitude | 34000 |
| Route | RAVAK DCT NEPOS DCT OKLOP DCT OSVIX DCT TONDO DCT NATEX NATEX2W |
| Aircraft | A320/M-SDE3FGHIRWY/LB1 |
Departure
| Time | 2026-04-21 20:01 |
|---|---|
| Airport | Niš Constantine the Great Airport (LYNI) |
Arrival
| Time | 2026-04-21 21:05 |
|---|---|
| Airport | Vienna International Airport (LOWW) |
| Time | Latitude | Longitude | Altitude | Speed | Heading |
|---|---|---|---|---|---|
| 2026-04-21 19:27 | 43.33679 | 21.86647 | 653 ft | 0 kts | 61° |
| 2026-04-21 19:57 | 43.33680 | 21.86656 | 653 ft | 3 kts | 78° |
| 2026-04-21 19:57 | 43.33671 | 21.86666 | 655 ft | 1 kts | 155° |
| 2026-04-21 19:57 | 43.33660 | 21.86664 | 653 ft | 4 kts | 191° |
| 2026-04-21 19:57 | 43.33616 | 21.86661 | 653 ft | 8 kts | 163° |
| 2026-04-21 19:58 | 43.33573 | 21.86685 | 654 ft | 5 kts | 159° |
| 2026-04-21 19:58 | 43.33531 | 21.86703 | 654 ft | 9 kts | 167° |
| 2026-04-21 19:58 | 43.33453 | 21.86680 | 650 ft | 11 kts | 204° |
| 2026-04-21 19:58 | 43.33418 | 21.86658 | 650 ft | 0 kts | 205° |
| 2026-04-21 19:59 | 43.33416 | 21.86657 | 650 ft | 1 kts | 205° |
| 2026-04-21 19:59 | 43.33405 | 21.86649 | 650 ft | 2 kts | 205° |
| 2026-04-21 19:59 | 43.33378 | 21.86632 | 650 ft | 7 kts | 205° |
| 2026-04-21 20:00 | 43.33352 | 21.86584 | 652 ft | 5 kts | 262° |
| 2026-04-21 20:00 | 43.33352 | 21.86560 | 652 ft | 1 kts | 273° |
| 2026-04-21 20:00 | 43.33375 | 21.86482 | 655 ft | 18 kts | 292° |
| 2026-04-21 20:00 | 43.33481 | 21.86151 | 659 ft | 73 kts | 293° |
| 2026-04-21 20:01 | 43.33780 | 21.85211 | 656 ft | 140 kts | 293° |
| 2026-04-21 20:01 | 43.34227 | 21.83831 | 1005 ft | 161 kts | 300° |
| 2026-04-21 20:01 | 43.34922 | 21.82648 | 1762 ft | 164 kts | 332° |
| 2026-04-21 20:01 | 43.36010 | 21.82014 | 2259 ft | 180 kts | 338° |
| 2026-04-21 20:02 | 43.37225 | 21.81350 | 2708 ft | 195 kts | 338° |
| 2026-04-21 20:02 | 43.38563 | 21.80587 | 3013 ft | 223 kts | 337° |
| 2026-04-21 20:02 | 43.40063 | 21.79696 | 3485 ft | 246 kts | 336° |
| 2026-04-21 20:02 | 43.41658 | 21.78732 | 4286 ft | 254 kts | 336° |
| 2026-04-21 20:03 | 43.43293 | 21.77738 | 5198 ft | 259 kts | 336° |
| 2026-04-21 20:03 | 43.44957 | 21.76725 | 6104 ft | 264 kts | 337° |
| 2026-04-21 20:03 | 43.46651 | 21.75697 | 6986 ft | 268 kts | 336° |
| 2026-04-21 20:03 | 43.48373 | 21.74664 | 7878 ft | 271 kts | 336° |
| 2026-04-21 20:04 | 43.50116 | 21.73640 | 8777 ft | 274 kts | 336° |
| 2026-04-21 20:04 | 43.51880 | 21.72609 | 9686 ft | 277 kts | 336° |
| 2026-04-21 20:04 | 43.53663 | 21.71566 | 10528 ft | 280 kts | 336° |
| 2026-04-21 20:04 | 43.55461 | 21.70512 | 11376 ft | 282 kts | 335° |
| 2026-04-21 20:05 | 43.57269 | 21.69450 | 12234 ft | 283 kts | 334° |
| 2026-04-21 20:05 | 43.59090 | 21.68378 | 13078 ft | 286 kts | 333° |
| 2026-04-21 20:05 | 43.60924 | 21.67300 | 13914 ft | 288 kts | 333° |
| 2026-04-21 20:05 | 43.62773 | 21.66212 | 14659 ft | 290 kts | 332° |
| 2026-04-21 20:06 | 43.64635 | 21.65115 | 15384 ft | 292 kts | 331° |
| 2026-04-21 20:06 | 43.66518 | 21.64005 | 16100 ft | 295 kts | 330° |
| 2026-04-21 20:06 | 43.68417 | 21.62884 | 16833 ft | 299 kts | 330° |
| 2026-04-21 20:06 | 43.70351 | 21.61739 | 17320 ft | 311 kts | 330° |
| 2026-04-21 20:07 | 43.72405 | 21.60512 | 17465 ft | 332 kts | 330° |
| 2026-04-21 20:07 | 43.74575 | 21.59215 | 17799 ft | 345 kts | 330° |
| 2026-04-21 20:07 | 43.76798 | 21.57897 | 18407 ft | 350 kts | 330° |
| 2026-04-21 20:07 | 43.79047 | 21.56568 | 18998 ft | 353 kts | 330° |
| 2026-04-21 20:08 | 43.81316 | 21.55230 | 19588 ft | 356 kts | 330° |
| 2026-04-21 20:08 | 43.83605 | 21.53879 | 20181 ft | 359 kts | 330° |
| 2026-04-21 20:08 | 43.85913 | 21.52513 | 20776 ft | 363 kts | 330° |
| 2026-04-21 20:08 | 43.88243 | 21.51128 | 21362 ft | 366 kts | 329° |
| 2026-04-21 20:09 | 43.90594 | 21.49728 | 21953 ft | 369 kts | 329° |
| 2026-04-21 20:09 | 43.92961 | 21.48319 | 22571 ft | 371 kts | 329° |
| 2026-04-21 20:09 | 43.95313 | 21.46915 | 23116 ft | 375 kts | 329° |
| 2026-04-21 20:09 | 43.97721 | 21.45475 | 23636 ft | 379 kts | 329° |
| 2026-04-21 20:10 | 44.00156 | 21.44016 | 24085 ft | 382 kts | 328° |
| 2026-04-21 20:10 | 44.02609 | 21.42552 | 24540 ft | 385 kts | 329° |
| 2026-04-21 20:10 | 44.05073 | 21.41086 | 25023 ft | 386 kts | 329° |
| 2026-04-21 20:10 | 44.07547 | 21.39612 | 25489 ft | 388 kts | 328° |
| 2026-04-21 20:11 | 44.10030 | 21.38134 | 25957 ft | 389 kts | 328° |
| 2026-04-21 20:11 | 44.12524 | 21.36647 | 26398 ft | 391 kts | 328° |
| 2026-04-21 20:11 | 44.15026 | 21.35149 | 26875 ft | 392 kts | 328° |
| 2026-04-21 20:11 | 44.17537 | 21.33643 | 27305 ft | 394 kts | 328° |
| 2026-04-21 20:12 | 44.20060 | 21.32130 | 27732 ft | 396 kts | 328° |
| 2026-04-21 20:12 | 44.22594 | 21.30608 | 28129 ft | 397 kts | 328° |
| 2026-04-21 20:12 | 44.25137 | 21.29074 | 28536 ft | 399 kts | 328° |
| 2026-04-21 20:12 | 44.27689 | 21.27529 | 28935 ft | 401 kts | 328° |
| 2026-04-21 20:13 | 44.30248 | 21.25974 | 29314 ft | 402 kts | 328° |
| 2026-04-21 20:13 | 44.32734 | 21.24234 | 29689 ft | 396 kts | 321° |
| 2026-04-21 20:13 | 44.34971 | 21.22037 | 30047 ft | 392 kts | 316° |
| 2026-04-21 20:13 | 44.37150 | 21.19723 | 30370 ft | 395 kts | 316° |
| 2026-04-21 20:14 | 44.39342 | 21.17397 | 30601 ft | 397 kts | 316° |
| 2026-04-21 20:14 | 44.41551 | 21.15054 | 30841 ft | 399 kts | 316° |
| 2026-04-21 20:14 | 44.43769 | 21.12704 | 31095 ft | 401 kts | 316° |
| 2026-04-21 20:14 | 44.45987 | 21.10354 | 31438 ft | 400 kts | 316° |
| 2026-04-21 20:15 | 44.48202 | 21.08007 | 31774 ft | 398 kts | 316° |
| 2026-04-21 20:15 | 44.50407 | 21.05667 | 32132 ft | 397 kts | 316° |
| 2026-04-21 20:15 | 44.52606 | 21.03330 | 32484 ft | 396 kts | 316° |
| 2026-04-21 20:15 | 44.54799 | 21.00998 | 32830 ft | 395 kts | 316° |
| 2026-04-21 20:16 | 44.56985 | 20.98669 | 33173 ft | 394 kts | 316° |
| 2026-04-21 20:16 | 44.59168 | 20.96343 | 33510 ft | 394 kts | 316° |
| 2026-04-21 20:16 | 44.61347 | 20.94017 | 33876 ft | 393 kts | 317° |
| 2026-04-21 20:16 | 44.63497 | 20.91711 | 34045 ft | 396 kts | 317° |
| 2026-04-21 20:17 | 44.65680 | 20.89366 | 34075 ft | 395 kts | 317° |
| 2026-04-21 20:17 | 44.70037 | 20.84688 | 34080 ft | 395 kts | 317° |
| 2026-04-21 20:18 | 44.73700 | 20.80756 | 34080 ft | 396 kts | 317° |
| 2026-04-21 20:18 | 44.78783 | 20.75291 | 34077 ft | 396 kts | 317° |
| 2026-04-21 20:19 | 44.83151 | 20.70574 | 34075 ft | 396 kts | 317° |
| 2026-04-21 20:19 | 44.87515 | 20.65854 | 34076 ft | 395 kts | 317° |
| 2026-04-21 20:20 | 44.91878 | 20.61131 | 34073 ft | 395 kts | 317° |
| 2026-04-21 20:20 | 44.96237 | 20.56400 | 34075 ft | 395 kts | 317° |
| 2026-04-21 20:21 | 45.00598 | 20.51669 | 34072 ft | 395 kts | 317° |
| 2026-04-21 20:21 | 45.04949 | 20.46928 | 34075 ft | 395 kts | 317° |
| 2026-04-21 20:22 | 45.09266 | 20.42209 | 34075 ft | 395 kts | 317° |
| 2026-04-21 20:22 | 45.15798 | 20.35060 | 34078 ft | 396 kts | 317° |
| 2026-04-21 20:23 | 45.20164 | 20.30260 | 34074 ft | 398 kts | 317° |
| 2026-04-21 20:23 | 45.24540 | 20.25448 | 34073 ft | 398 kts | 317° |
| 2026-04-21 20:24 | 45.28923 | 20.20627 | 34079 ft | 399 kts | 317° |
| 2026-04-21 20:24 | 45.33306 | 20.15801 | 34081 ft | 399 kts | 317° |
| 2026-04-21 20:25 | 45.37689 | 20.10963 | 34086 ft | 399 kts | 317° |
| 2026-04-21 20:25 | 45.42068 | 20.06102 | 34089 ft | 400 kts | 317° |
| 2026-04-21 20:26 | 45.46459 | 20.01227 | 34083 ft | 401 kts | 317° |
| 2026-04-21 20:26 | 45.50853 | 19.96339 | 34081 ft | 401 kts | 317° |
| 2026-04-21 20:27 | 45.55252 | 19.91444 | 34084 ft | 401 kts | 317° |
| 2026-04-21 20:27 | 45.59647 | 19.86535 | 34086 ft | 401 kts | 317° |
| 2026-04-21 20:28 | 45.64037 | 19.81610 | 34107 ft | 401 kts | 317° |
| 2026-04-21 20:28 | 45.68436 | 19.76677 | 34087 ft | 402 kts | 318° |
| 2026-04-21 20:29 | 45.72814 | 19.71762 | 34082 ft | 403 kts | 318° |
| 2026-04-21 20:29 | 45.77223 | 19.66797 | 34080 ft | 403 kts | 318° |
| 2026-04-21 20:30 | 45.81635 | 19.61821 | 34083 ft | 404 kts | 317° |
| 2026-04-21 20:30 | 45.86046 | 19.56829 | 34087 ft | 404 kts | 317° |
| 2026-04-21 20:31 | 45.90461 | 19.51829 | 34101 ft | 405 kts | 318° |
| 2026-04-21 20:31 | 45.94882 | 19.46806 | 34093 ft | 406 kts | 318° |
| 2026-04-21 20:32 | 45.99314 | 19.41770 | 34085 ft | 407 kts | 318° |
| 2026-04-21 20:32 | 46.03753 | 19.36713 | 34095 ft | 407 kts | 318° |
| 2026-04-21 20:33 | 46.08252 | 19.31727 | 34089 ft | 409 kts | 320° |
| 2026-04-21 20:33 | 46.12881 | 19.26931 | 34097 ft | 410 kts | 321° |
| 2026-04-21 20:34 | 46.17518 | 19.22135 | 34114 ft | 410 kts | 321° |
| 2026-04-21 20:34 | 46.22137 | 19.17278 | 34095 ft | 411 kts | 321° |
| 2026-04-21 20:35 | 46.26716 | 19.12416 | 34100 ft | 412 kts | 320° |
| 2026-04-21 20:35 | 46.31333 | 19.07515 | 34098 ft | 412 kts | 320° |
| 2026-04-21 20:36 | 46.35958 | 19.02607 | 34095 ft | 412 kts | 320° |
| 2026-04-21 20:36 | 46.40579 | 18.97685 | 34103 ft | 413 kts | 320° |
| 2026-04-21 20:37 | 46.45202 | 18.92743 | 34117 ft | 413 kts | 321° |
| 2026-04-21 20:37 | 46.49827 | 18.87791 | 34113 ft | 413 kts | 321° |
| 2026-04-21 20:38 | 46.54457 | 18.82837 | 34112 ft | 414 kts | 321° |
| 2026-04-21 20:38 | 46.59090 | 18.77872 | 34114 ft | 414 kts | 321° |
| 2026-04-21 20:39 | 46.63719 | 18.72885 | 34117 ft | 414 kts | 321° |
| 2026-04-21 20:39 | 46.68344 | 18.67882 | 34125 ft | 414 kts | 321° |
| 2026-04-21 20:40 | 46.72978 | 18.62863 | 34111 ft | 416 kts | 321° |
| 2026-04-21 20:40 | 46.77626 | 18.57825 | 34104 ft | 417 kts | 321° |
| 2026-04-21 20:41 | 46.79961 | 18.55289 | 33856 ft | 419 kts | 321° |
| 2026-04-21 20:41 | 46.82298 | 18.52749 | 33586 ft | 419 kts | 321° |
| 2026-04-21 20:41 | 46.84606 | 18.50240 | 33319 ft | 419 kts | 321° |
| 2026-04-21 20:41 | 46.86947 | 18.47691 | 33050 ft | 419 kts | 321° |
| 2026-04-21 20:42 | 46.89286 | 18.45142 | 32784 ft | 420 kts | 321° |
| 2026-04-21 20:42 | 46.91624 | 18.42590 | 32522 ft | 419 kts | 321° |
| 2026-04-21 20:42 | 46.93955 | 18.40043 | 32256 ft | 417 kts | 321° |
| 2026-04-21 20:42 | 46.96277 | 18.37506 | 32019 ft | 416 kts | 321° |
| 2026-04-21 20:43 | 46.98591 | 18.34974 | 31739 ft | 414 kts | 321° |
| 2026-04-21 20:43 | 47.00883 | 18.32463 | 31210 ft | 409 kts | 321° |
| 2026-04-21 20:43 | 47.03145 | 18.29980 | 30673 ft | 405 kts | 321° |
| 2026-04-21 20:43 | 47.05389 | 18.27514 | 30113 ft | 401 kts | 321° |
| 2026-04-21 20:44 | 47.07607 | 18.25071 | 29537 ft | 396 kts | 321° |
| 2026-04-21 20:44 | 47.09793 | 18.22662 | 29027 ft | 390 kts | 321° |
| 2026-04-21 20:44 | 47.11951 | 18.20286 | 28516 ft | 385 kts | 321° |
| 2026-04-21 20:44 | 47.14081 | 18.17941 | 28012 ft | 380 kts | 321° |
| 2026-04-21 20:45 | 47.16184 | 18.15622 | 27521 ft | 376 kts | 321° |
| 2026-04-21 20:45 | 47.18264 | 18.13327 | 27033 ft | 372 kts | 321° |
| 2026-04-21 20:45 | 47.20318 | 18.11053 | 26559 ft | 368 kts | 321° |
| 2026-04-21 20:45 | 47.22353 | 18.08791 | 26093 ft | 365 kts | 321° |
| 2026-04-21 20:46 | 47.23690 | 18.07303 | 25793 ft | 363 kts | 321° |
| 2026-04-21 20:46 | 47.25696 | 18.05075 | 25345 ft | 360 kts | 321° |
| 2026-04-21 20:46 | 47.27684 | 18.02864 | 24910 ft | 356 kts | 321° |
| 2026-04-21 20:46 | 47.29654 | 18.00671 | 24484 ft | 353 kts | 321° |
| 2026-04-21 20:47 | 47.32235 | 17.97798 | 23923 ft | 349 kts | 322° |
| 2026-04-21 20:47 | 47.34165 | 17.95651 | 23467 ft | 346 kts | 322° |
| 2026-04-21 20:47 | 47.36074 | 17.93524 | 23040 ft | 342 kts | 322° |
| 2026-04-21 20:47 | 47.37955 | 17.91424 | 22635 ft | 337 kts | 322° |
| 2026-04-21 20:48 | 47.39213 | 17.90016 | 22361 ft | 334 kts | 322° |
| 2026-04-21 20:48 | 47.41030 | 17.87984 | 21969 ft | 331 kts | 322° |
| 2026-04-21 20:48 | 47.42859 | 17.85937 | 21563 ft | 329 kts | 322° |
| 2026-04-21 20:48 | 47.44679 | 17.83899 | 21154 ft | 327 kts | 322° |
| 2026-04-21 20:49 | 47.46483 | 17.81874 | 20750 ft | 325 kts | 322° |
| 2026-04-21 20:49 | 47.48279 | 17.79858 | 20327 ft | 323 kts | 322° |
| 2026-04-21 20:49 | 47.50064 | 17.77855 | 19916 ft | 321 kts | 322° |
| 2026-04-21 20:49 | 47.51841 | 17.75862 | 19498 ft | 320 kts | 322° |
| 2026-04-21 20:50 | 47.53611 | 17.73875 | 19083 ft | 319 kts | 322° |
| 2026-04-21 20:50 | 47.55374 | 17.71892 | 18668 ft | 318 kts | 322° |
| 2026-04-21 20:50 | 47.57131 | 17.69908 | 18229 ft | 317 kts | 322° |
| 2026-04-21 20:50 | 47.58882 | 17.67930 | 17799 ft | 315 kts | 322° |
| 2026-04-21 20:51 | 47.60621 | 17.65966 | 17397 ft | 313 kts | 322° |
| 2026-04-21 20:51 | 47.62348 | 17.64013 | 16998 ft | 311 kts | 322° |
| 2026-04-21 20:51 | 47.64065 | 17.62067 | 16595 ft | 310 kts | 322° |
| 2026-04-21 20:51 | 47.65772 | 17.60130 | 16200 ft | 308 kts | 322° |
| 2026-04-21 20:52 | 47.67472 | 17.58202 | 15811 ft | 307 kts | 322° |
| 2026-04-21 20:52 | 47.69167 | 17.56278 | 15416 ft | 306 kts | 322° |
| 2026-04-21 20:52 | 47.70856 | 17.54358 | 15029 ft | 305 kts | 322° |
| 2026-04-21 20:52 | 47.72543 | 17.52445 | 14639 ft | 305 kts | 322° |
| 2026-04-21 20:53 | 47.74202 | 17.50484 | 14246 ft | 305 kts | 317° |
| 2026-04-21 20:53 | 47.75623 | 17.48117 | 13774 ft | 314 kts | 307° |
| 2026-04-21 20:53 | 47.76905 | 17.45453 | 13205 ft | 318 kts | 306° |
| 2026-04-21 20:53 | 47.78185 | 17.42791 | 12684 ft | 316 kts | 307° |
| 2026-04-21 20:54 | 47.79463 | 17.40140 | 12168 ft | 315 kts | 307° |
| 2026-04-21 20:54 | 47.80736 | 17.37502 | 11651 ft | 313 kts | 307° |
| 2026-04-21 20:54 | 47.82006 | 17.34867 | 11138 ft | 314 kts | 307° |
| 2026-04-21 20:54 | 47.83278 | 17.32224 | 10619 ft | 314 kts | 307° |
| 2026-04-21 20:55 | 47.84534 | 17.29607 | 10344 ft | 303 kts | 307° |
| 2026-04-21 20:55 | 47.85713 | 17.27141 | 10066 ft | 284 kts | 307° |
| 2026-04-21 20:55 | 47.86843 | 17.24782 | 9620 ft | 275 kts | 307° |
| 2026-04-21 20:55 | 47.87962 | 17.22449 | 9488 ft | 278 kts | 307° |
| 2026-04-21 20:56 | 47.89086 | 17.20105 | 9174 ft | 279 kts | 307° |
| 2026-04-21 20:56 | 47.90213 | 17.17755 | 8697 ft | 279 kts | 307° |
| 2026-04-21 20:56 | 47.91340 | 17.15398 | 8230 ft | 278 kts | 308° |
| 2026-04-21 20:56 | 47.92428 | 17.13049 | 7795 ft | 274 kts | 303° |
| 2026-04-21 20:57 | 47.93291 | 17.10533 | 7270 ft | 271 kts | 299° |
| 2026-04-21 20:57 | 47.94135 | 17.08020 | 6796 ft | 270 kts | 300° |
| 2026-04-21 20:57 | 47.94975 | 17.05517 | 6304 ft | 269 kts | 300° |
| 2026-04-21 20:57 | 47.95817 | 17.03004 | 5824 ft | 271 kts | 300° |
| 2026-04-21 20:58 | 47.96645 | 17.00528 | 5367 ft | 270 kts | 300° |
| 2026-04-21 20:58 | 47.97517 | 16.98047 | 4894 ft | 269 kts | 302° |
| 2026-04-21 20:58 | 47.98396 | 16.95595 | 4420 ft | 264 kts | 300° |
| 2026-04-21 20:58 | 47.99175 | 16.93253 | 4321 ft | 239 kts | 300° |
| 2026-04-21 20:59 | 47.99874 | 16.91128 | 4272 ft | 220 kts | 300° |
| 2026-04-21 20:59 | 48.00532 | 16.89138 | 4206 ft | 208 kts | 301° |
| 2026-04-21 20:59 | 48.01159 | 16.87241 | 4141 ft | 201 kts | 301° |
| 2026-04-21 20:59 | 48.01776 | 16.85375 | 4064 ft | 200 kts | 301° |
| 2026-04-21 21:00 | 48.02389 | 16.83518 | 3999 ft | 199 kts | 301° |
| 2026-04-21 21:00 | 48.03001 | 16.81664 | 4007 ft | 199 kts | 301° |
| 2026-04-21 21:00 | 48.03586 | 16.79882 | 3952 ft | 185 kts | 301° |
| 2026-04-21 21:00 | 48.04150 | 16.78170 | 3703 ft | 182 kts | 301° |
| 2026-04-21 21:01 | 48.04701 | 16.76496 | 3474 ft | 178 kts | 302° |
| 2026-04-21 21:01 | 48.05241 | 16.74852 | 3225 ft | 175 kts | 302° |
| 2026-04-21 21:01 | 48.05771 | 16.73240 | 2989 ft | 171 kts | 302° |
| 2026-04-21 21:01 | 48.06287 | 16.71667 | 2760 ft | 164 kts | 302° |
| 2026-04-21 21:02 | 48.06771 | 16.70186 | 2524 ft | 153 kts | 303° |
| 2026-04-21 21:02 | 48.07225 | 16.68802 | 2348 ft | 145 kts | 304° |
| 2026-04-21 21:02 | 48.07662 | 16.67472 | 2146 ft | 141 kts | 304° |
| 2026-04-21 21:02 | 48.08090 | 16.66168 | 1951 ft | 139 kts | 304° |
| 2026-04-21 21:03 | 48.08512 | 16.64879 | 1769 ft | 137 kts | 304° |
| 2026-04-21 21:03 | 48.08925 | 16.63618 | 1567 ft | 136 kts | 303° |
| 2026-04-21 21:03 | 48.09344 | 16.62340 | 1377 ft | 137 kts | 301° |
| 2026-04-21 21:03 | 48.09760 | 16.61067 | 1175 ft | 134 kts | 299° |
| 2026-04-21 21:04 | 48.10164 | 16.59831 | 996 ft | 130 kts | 298° |
| 2026-04-21 21:04 | 48.10562 | 16.58626 | 799 ft | 129 kts | 296° |
| 2026-04-21 21:04 | 48.10947 | 16.57427 | 635 ft | 127 kts | 297° |
| 2026-04-21 21:04 | 48.11295 | 16.56366 | 616 ft | 93 kts | 296° |
| 2026-04-21 21:05 | 48.11502 | 16.55730 | 613 ft | 43 kts | 296° |
| 2026-04-21 21:05 | 48.11611 | 16.55432 | 619 ft | 30 kts | 304° |
| 2026-04-21 21:05 | 48.11731 | 16.55242 | 609 ft | 15 kts | 317° |
| 2026-04-21 21:05 | 48.11807 | 16.55152 | 609 ft | 8 kts | 338° |
| 2026-04-21 21:06 | 48.11862 | 16.55140 | 609 ft | 5 kts | 10° |
| 2026-04-21 21:06 | 48.11893 | 16.55163 | 619 ft | 4 kts | 28° |
| 2026-04-21 21:06 | 48.11916 | 16.55182 | 614 ft | 3 kts | 28° |
| 2026-04-21 21:06 | 48.11935 | 16.55197 | 612 ft | 3 kts | 28° |
| 2026-04-21 21:07 | 48.11951 | 16.55231 | 612 ft | 5 kts | 76° |
| 2026-04-21 21:07 | 48.11939 | 16.55281 | 614 ft | 6 kts | 117° |
| 2026-04-21 21:07 | 48.11923 | 16.55327 | 613 ft | 5 kts | 117° |
| 2026-04-21 21:07 | 48.11909 | 16.55368 | 613 ft | 4 kts | 117° |
| 2026-04-21 21:08 | 48.11898 | 16.55405 | 614 ft | 4 kts | 112° |
| 2026-04-21 21:08 | 48.11887 | 16.55449 | 617 ft | 8 kts | 108° |
| 2026-04-21 21:08 | 48.11868 | 16.55532 | 617 ft | 8 kts | 112° |
| 2026-04-21 21:08 | 48.11846 | 16.55602 | 620 ft | 7 kts | 116° |
| 2026-04-21 21:09 | 48.11827 | 16.55661 | 619 ft | 6 kts | 117° |
| 2026-04-21 21:09 | 48.11810 | 16.55711 | 615 ft | 5 kts | 117° |
| 2026-04-21 21:09 | 48.11802 | 16.55772 | 609 ft | 6 kts | 75° |
| 2026-04-21 21:09 | 48.11829 | 16.55789 | 613 ft | 4 kts | 350° |
| 2026-04-21 21:10 | 48.11872 | 16.55770 | 620 ft | 8 kts | 349° |
| 2026-04-21 21:10 | 48.11898 | 16.55763 | 614 ft | 2 kts | 349° |
| 2026-04-21 21:10 | 48.11904 | 16.55761 | 611 ft | 0 kts | 349° |